createdAt,value
2024-02-01T00:04:02.538Z,18.17
2024-02-01T00:09:07.401Z,17.83
2024-02-01T00:14:10.853Z,19.17
2024-02-01T00:19:14.297Z,20.27
2024-02-01T00:24:20.156Z,18.80
2024-02-01T00:29:23.511Z,17.07
2024-02-01T00:34:26.917Z,17.17
2024-02-01T00:39:31.585Z,18.40
2024-02-01T00:44:34.908Z,20.00
2024-02-01T00:49:38.421Z,16.37
2024-02-01T00:54:43.079Z,15.27
2024-02-01T00:59:46.515Z,15.83
2024-02-01T01:04:49.860Z,16.77
2024-02-01T01:09:54.618Z,14.37
2024-02-01T01:14:57.883Z,16.60
2024-02-01T01:20:04.545Z,12.77
2024-02-01T01:25:09.696Z,12.23
2024-02-01T01:30:14.220Z,13.40
2024-02-01T01:35:17.594Z,13.77
2024-02-01T01:40:22.248Z,14.47
2024-02-01T01:45:25.557Z,14.73
2024-02-01T01:50:29.282Z,14.77
2024-02-01T01:55:34.135Z,13.83
2024-02-01T02:00:37.435Z,14.13
2024-02-01T02:05:42.540Z,12.87
2024-02-01T02:10:47.384Z,12.80
2024-02-01T02:15:50.623Z,14.20
2024-02-01T02:20:57.747Z,11.23
2024-02-01T02:26:03.447Z,12.07
2024-02-01T02:31:06.845Z,12.47
2024-02-01T02:36:11.465Z,10.83
2024-02-01T02:41:17.789Z,13.20
2024-02-01T02:46:21.273Z,15.20
2024-02-01T02:51:24.551Z,15.23
2024-02-01T02:56:29.184Z,15.07
2024-02-01T03:01:32.755Z,14.13
2024-02-01T03:06:36.595Z,16.50
2024-02-01T03:11:41.347Z,14.37
2024-02-01T03:16:44.678Z,13.37
2024-02-01T03:21:49.626Z,17.67
2024-02-01T03:26:54.255Z,14.53
2024-02-01T03:31:57.840Z,18.40
2024-02-01T03:37:02.921Z,14.83
2024-02-01T03:42:09.137Z,15.47
2024-02-01T03:47:12.480Z,12.47
2024-02-01T03:52:21.776Z,13.33
2024-02-01T03:57:27.151Z,12.53
2024-02-01T04:02:30.414Z,13.27
2024-02-01T04:07:41.015Z,13.90
2024-02-01T04:12:45.687Z,11.43
2024-02-01T04:17:50.487Z,12.50
2024-02-01T04:22:55.132Z,13.47
2024-02-01T04:27:59.938Z,15.10
2024-02-01T04:33:03.846Z,13.63
2024-02-01T04:38:07.158Z,13.63
2024-02-01T04:43:11.821Z,14.00
2024-02-01T04:48:15.317Z,13.03
2024-02-01T04:53:18.673Z,13.53
2024-02-01T04:58:23.924Z,14.20
2024-02-01T05:03:29.770Z,12.70
2024-02-01T05:08:33.555Z,12.47
2024-02-01T05:13:38.328Z,10.53
2024-02-01T05:18:42.160Z,12.10
2024-02-01T05:23:50.772Z,10.43
2024-02-01T05:28:55.463Z,9.77
2024-02-01T05:33:58.915Z,12.40
2024-02-01T05:39:06.957Z,9.07
2024-02-01T05:44:13.864Z,7.17
2024-02-01T05:49:19.952Z,9.13
2024-02-01T05:54:23.658Z,7.37
2024-02-01T05:59:28.316Z,6.33
2024-02-01T06:04:31.576Z,7.37
2024-02-01T06:09:34.972Z,6.30
2024-02-01T06:14:39.849Z,7.73
2024-02-01T06:19:43.311Z,8.17
2024-02-01T06:24:46.664Z,7.53
2024-02-01T06:29:51.440Z,7.80
2024-02-01T06:35:00.259Z,7.17
2024-02-01T06:40:29.918Z,15.60
2024-02-01T06:45:43.754Z,6.20
2024-02-01T06:50:59.132Z,5.13
2024-02-01T06:56:09.050Z,5.43
2024-02-01T07:01:35.278Z,5.35
2024-02-01T07:06:40.666Z,5.50
2024-02-01T07:12:00.005Z,4.93
2024-02-01T07:17:28.716Z,4.68
2024-02-01T07:22:41.238Z,6.43
2024-02-01T07:28:02.111Z,5.33
2024-02-01T07:33:24.269Z,5.60
2024-02-01T07:38:45.145Z,4.80
2024-02-01T07:44:05.909Z,5.88
2024-02-01T07:49:28.417Z,5.22
2024-02-01T07:54:49.169Z,4.30
2024-02-01T07:59:52.512Z,6.43
2024-02-01T08:05:14.451Z,6.13
2024-02-01T08:10:20.582Z,4.32
2024-02-01T08:15:25.530Z,6.22
2024-02-01T08:20:36.105Z,4.90
2024-02-01T08:25:41.995Z,5.13
2024-02-01T08:30:46.742Z,5.18
2024-02-01T08:35:51.367Z,3.10
2024-02-01T08:40:54.793Z,3.90
2024-02-01T08:45:58.182Z,6.20
2024-02-01T08:51:03.793Z,4.18
2024-02-01T08:56:07.705Z,4.60
2024-02-01T09:01:24.640Z,3.75
2024-02-01T09:06:30.045Z,4.82
2024-02-01T09:11:33.410Z,3.63
2024-02-01T09:16:36.779Z,5.32
2024-02-01T09:21:41.941Z,3.97
2024-02-01T09:26:45.227Z,3.80
2024-02-01T09:31:50.131Z,3.58
2024-02-01T09:36:54.816Z,4.90
2024-02-01T09:41:59.474Z,4.95
2024-02-01T09:47:05.953Z,4.28
2024-02-01T09:52:11.192Z,7.47
2024-02-01T09:57:16.795Z,4.78
2024-02-01T10:02:20.078Z,4.25
2024-02-01T10:07:25.857Z,5.22
2024-02-01T10:12:30.534Z,4.90
2024-02-01T10:17:33.897Z,4.40
2024-02-01T10:22:38.649Z,3.50
2024-02-01T10:27:41.934Z,4.05
2024-02-01T10:32:51.077Z,3.55
2024-02-01T10:37:56.825Z,4.47
2024-02-01T10:43:03.001Z,10.45
2024-02-01T10:48:11.809Z,3.83
2024-02-01T10:53:18.795Z,5.28
2024-02-01T10:58:23.126Z,3.20
2024-02-01T11:03:28.717Z,5.10
2024-02-01T11:08:35.378Z,3.08
2024-02-01T11:13:38.695Z,5.40
2024-02-01T11:18:51.801Z,5.25
2024-02-01T11:24:06.983Z,4.80
2024-02-01T11:29:11.842Z,3.53
2024-02-01T11:34:15.410Z,2.92
2024-02-01T11:39:20.683Z,2.88
2024-02-01T11:44:28.139Z,2.92
2024-02-01T11:49:32.729Z,2.85
2024-02-01T11:54:37.637Z,3.95
2024-02-01T11:59:41.024Z,2.92
2024-02-01T12:04:47.310Z,2.50
2024-02-01T12:09:52.385Z,4.60
2024-02-01T12:14:55.949Z,4.13
2024-02-01T12:19:59.487Z,4.13
2024-02-01T12:25:04.614Z,3.47
2024-02-01T12:30:12.743Z,3.30
2024-02-01T12:35:18.272Z,3.13
2024-02-01T12:40:23.556Z,1.85
2024-02-01T12:45:26.864Z,3.40
2024-02-01T12:50:37.925Z,3.70
2024-02-01T12:55:43.290Z,1.80
2024-02-01T13:00:48.575Z,2.50
2024-02-01T13:05:52.400Z,2.30
2024-02-01T13:10:57.378Z,2.88
2024-02-01T13:16:00.753Z,3.13
2024-02-01T13:21:05.577Z,2.67
2024-02-01T13:26:11.434Z,1.95
2024-02-01T13:31:14.831Z,3.08
2024-02-01T13:36:18.331Z,1.80
2024-02-01T13:41:23.200Z,1.58
2024-02-01T13:46:26.470Z,2.40
2024-02-01T13:51:29.735Z,2.97
2024-02-01T13:56:34.365Z,3.22
2024-02-01T14:01:37.713Z,2.25
2024-02-01T14:06:41.088Z,2.55
2024-02-01T14:11:45.851Z,1.77
2024-02-01T14:16:49.168Z,3.35
2024-02-01T14:21:53.015Z,2.78
2024-02-01T14:26:57.717Z,1.90
2024-02-01T14:32:01.064Z,1.20
2024-02-01T14:37:04.497Z,2.22
2024-02-01T14:42:09.766Z,1.48
2024-02-01T14:47:13.109Z,2.55
2024-02-01T14:52:18.368Z,1.60
2024-02-01T14:57:23.472Z,3.53
2024-02-01T15:02:26.995Z,1.40
2024-02-01T15:07:30.282Z,1.48
2024-02-01T15:12:34.940Z,1.85
2024-02-01T15:17:38.321Z,3.88
2024-02-01T15:22:42.420Z,2.15
2024-02-01T15:27:47.145Z,1.90
2024-02-01T15:32:50.568Z,2.03
2024-02-01T15:37:53.956Z,1.75
2024-02-01T15:43:00.495Z,1.50
2024-02-01T15:48:04.112Z,1.85
2024-02-01T15:53:09.640Z,2.17
2024-02-01T15:58:14.527Z,2.67
2024-02-01T16:03:18.073Z,1.80
2024-02-01T16:08:21.889Z,1.85
2024-02-01T16:13:26.990Z,2.50
2024-02-01T16:18:39.121Z,1.40
2024-02-01T16:23:46.925Z,1.70
2024-02-01T16:28:51.995Z,3.33
2024-02-01T16:33:59.728Z,2.35
2024-02-01T16:39:05.449Z,2.90
2024-02-01T16:44:20.954Z,1.70
2024-02-01T16:49:25.148Z,3.83
2024-02-01T16:54:29.134Z,3.35
2024-02-01T16:59:33.899Z,2.83
2024-02-01T17:04:41.196Z,3.33
2024-02-01T17:09:44.752Z,2.58
2024-02-01T17:14:49.470Z,1.85
2024-02-01T17:19:53.337Z,2.25
2024-02-01T17:24:58.091Z,2.45
2024-02-01T17:30:08.501Z,1.60
2024-02-01T17:35:11.993Z,3.25
2024-02-01T17:40:16.583Z,2.10
2024-02-01T17:45:38.250Z,3.08
2024-02-01T17:50:46.226Z,2.30
2024-02-01T17:55:52.665Z,4.65
2024-02-01T18:00:57.691Z,2.17
2024-02-01T18:06:02.518Z,2.85
2024-02-01T18:11:07.037Z,1.63
2024-02-01T18:16:15.884Z,1.83
2024-02-01T18:21:23.161Z,1.70
2024-02-01T18:26:27.130Z,2.28
2024-02-01T18:31:32.147Z,1.52
2024-02-01T18:36:37.371Z,2.00
2024-02-01T18:41:42.156Z,2.25
2024-02-01T18:46:49.964Z,1.63
2024-02-01T18:52:02.359Z,1.48
2024-02-01T18:57:08.635Z,3.65
2024-02-01T19:02:42.570Z,1.60
2024-02-01T19:07:47.997Z,1.23
2024-02-01T19:12:53.031Z,0.82
2024-02-01T19:17:58.079Z,1.65
2024-02-01T19:23:01.635Z,1.40
2024-02-01T19:28:06.203Z,1.90
2024-02-01T19:33:18.133Z,1.10
2024-02-01T19:38:26.556Z,0.98
2024-02-01T19:43:33.070Z,1.10
2024-02-01T19:48:37.883Z,1.15
2024-02-01T19:53:41.889Z,1.20
2024-02-01T19:58:45.589Z,1.17
2024-02-01T20:03:51.588Z,1.08
2024-02-01T20:08:57.646Z,0.93
2024-02-01T20:14:03.816Z,1.77
2024-02-01T20:19:09.900Z,1.80
2024-02-01T20:24:18.729Z,0.90
2024-02-01T20:29:22.620Z,0.82
2024-02-01T20:34:40.239Z,0.60
2024-02-01T20:39:45.019Z,1.93
2024-02-01T20:44:49.199Z,0.82
2024-02-01T20:49:54.948Z,1.03
2024-02-01T20:55:25.214Z,0.80
2024-02-01T21:00:29.004Z,1.15
2024-02-01T21:05:38.933Z,1.10
2024-02-01T21:10:50.897Z,0.80
2024-02-01T21:15:56.199Z,0.80
2024-02-01T21:21:05.876Z,0.80
2024-02-01T21:26:19.394Z,0.70
2024-02-01T21:31:42.635Z,0.68
2024-02-01T21:36:57.201Z,1.23
2024-02-01T21:42:00.699Z,0.60
2024-02-01T21:47:05.108Z,6.35
2024-02-01T21:52:10.062Z,1.70
2024-02-01T21:57:13.626Z,1.98
2024-02-01T22:02:17.144Z,1.52
2024-02-01T22:07:21.843Z,0.95
2024-02-01T22:12:25.367Z,0.65
2024-02-01T22:17:28.994Z,0.73
2024-02-01T22:22:36.860Z,0.70
2024-02-01T22:27:40.368Z,1.23
2024-02-01T22:32:44.821Z,1.93
2024-02-01T22:37:49.684Z,1.50
2024-02-01T22:42:53.063Z,0.80
2024-02-01T22:47:56.510Z,1.08
2024-02-01T22:53:01.888Z,0.60
2024-02-01T22:58:07.819Z,0.93
2024-02-01T23:03:11.385Z,0.97
2024-02-01T23:08:16.260Z,0.82
2024-02-01T23:13:19.719Z,0.87
2024-02-01T23:18:23.092Z,1.58
2024-02-01T23:23:28.581Z,3.10
2024-02-01T23:28:31.959Z,0.67
2024-02-01T23:33:38.170Z,1.23
2024-02-01T23:38:43.115Z,1.37
2024-02-01T23:43:46.505Z,0.90
2024-02-01T23:48:49.878Z,1.13
2024-02-01T23:53:54.741Z,1.17
2024-02-01T23:58:58.320Z,0.80
